createdAt,value
2019-04-03T00:00:34.496Z,98369.80
2019-04-03T00:01:39.133Z,98370.14
2019-04-03T00:02:41.658Z,98369.13
2019-04-03T00:03:43.854Z,98364.20
2019-04-03T00:04:46.241Z,98366.53
2019-04-03T00:05:48.454Z,98365.71
2019-04-03T00:06:50.803Z,98369.52
2019-04-03T00:07:53.035Z,98370.92
2019-04-03T00:08:55.291Z,98367.44
2019-04-03T00:09:57.549Z,98372.91
2019-04-03T00:11:00.218Z,98374.92
2019-04-03T00:12:03.677Z,98367.97
2019-04-03T00:13:05.922Z,98370.11
2019-04-03T00:14:08.110Z,98366.64
2019-04-03T00:15:13.490Z,98368.66
2019-04-03T00:16:16.091Z,98362.66
2019-04-03T00:17:18.199Z,98370.95
2019-04-03T00:18:20.435Z,98365.36
2019-04-03T00:19:22.104Z,98360.81
2019-04-03T00:20:24.653Z,98360.80
2019-04-03T00:21:26.839Z,98357.28
2019-04-03T00:22:30.461Z,98355.28
2019-04-03T00:23:32.509Z,98356.44
2019-04-03T00:24:34.858Z,98357.31
2019-04-03T00:25:37.247Z,98357.63
2019-04-03T00:26:39.464Z,98359.11
2019-04-03T00:27:41.207Z,98354.17
2019-04-03T00:28:43.687Z,98356.47
2019-04-03T00:29:46.223Z,98353.09
2019-04-03T00:30:52.448Z,98351.55
2019-04-03T00:31:54.808Z,98350.89
2019-04-03T00:32:56.770Z,98355.27
2019-04-03T00:33:58.826Z,98350.29
2019-04-03T00:35:01.106Z,98348.09
2019-04-03T00:36:03.586Z,98349.22
2019-04-03T00:37:05.919Z,98349.91
2019-04-03T00:38:08.162Z,98346.25
2019-04-03T00:39:10.390Z,98349.73
2019-04-03T00:40:12.963Z,98346.61
2019-04-03T00:41:15.071Z,98347.25
2019-04-03T00:42:17.720Z,98346.09
2019-04-03T00:43:19.468Z,98352.92
2019-04-03T00:44:22.703Z,98348.45
2019-04-03T00:45:25.889Z,98344.47
2019-04-03T00:46:27.868Z,98338.53
2019-04-03T00:47:30.133Z,98342.34
2019-04-03T00:48:31.873Z,98339.05
2019-04-03T00:49:34.083Z,98335.38
2019-04-03T00:50:36.419Z,98331.57
2019-04-03T00:51:39.114Z,98328.08
2019-04-03T00:52:41.531Z,98330.72
2019-04-03T00:53:44.224Z,98334.38
2019-04-03T00:54:46.485Z,98330.90
2019-04-03T00:55:48.682Z,98333.05
2019-04-03T00:56:50.925Z,98332.05
2019-04-03T00:57:52.989Z,98328.23
2019-04-03T00:58:55.943Z,98332.53
2019-04-03T00:59:58.346Z,98323.46
2019-04-03T01:01:00.225Z,98328.45
2019-04-03T01:02:02.531Z,98329.73
2019-04-03T01:03:05.101Z,98326.91
2019-04-03T01:04:07.036Z,98326.11
2019-04-03T01:05:10.299Z,98324.64
2019-04-03T01:06:19.436Z,98327.61
2019-04-03T01:07:21.665Z,98324.63
2019-04-03T01:08:23.930Z,98320.48
2019-04-03T01:09:25.734Z,98318.49
2019-04-03T01:10:29.646Z,98318.86
2019-04-03T01:11:32.227Z,98317.02
2019-04-03T01:12:34.085Z,98324.50
2019-04-03T01:13:36.715Z,98320.35
2019-04-03T01:14:39.859Z,98318.84
2019-04-03T01:15:41.926Z,98313.54
2019-04-03T01:16:43.942Z,98309.58
2019-04-03T01:17:46.352Z,98307.28
2019-04-03T01:18:48.423Z,98317.52
2019-04-03T01:19:50.567Z,98319.21
2019-04-03T01:20:52.974Z,98314.88
2019-04-03T01:21:55.477Z,98313.70
2019-04-03T01:22:57.936Z,98311.89
2019-04-03T01:24:00.162Z,98312.06
2019-04-03T01:25:05.213Z,98318.04
2019-04-03T01:26:09.250Z,98311.25
2019-04-03T01:27:12.064Z,98310.89
2019-04-03T01:28:14.417Z,98314.55
2019-04-03T01:29:16.707Z,98306.12
2019-04-03T01:30:18.789Z,98308.45
2019-04-03T01:31:21.608Z,98305.95
2019-04-03T01:32:23.561Z,98309.73
2019-04-03T01:33:25.779Z,98304.62
2019-04-03T01:34:28.242Z,98306.92
2019-04-03T01:35:30.692Z,98304.80
2019-04-03T01:36:32.804Z,98302.95
2019-04-03T01:37:35.092Z,98301.98
2019-04-03T01:38:37.299Z,98298.33
2019-04-03T01:39:40.167Z,98304.64
2019-04-03T01:40:42.362Z,98298.50
2019-04-03T01:41:44.383Z,98298.66
2019-04-03T01:42:46.129Z,98302.63
2019-04-03T01:43:48.262Z,98299.34
2019-04-03T01:44:50.441Z,98297.33
2019-04-03T01:45:52.171Z,98300.98
2019-04-03T01:46:57.426Z,98298.80
2019-04-03T01:47:59.378Z,98299.66
2019-04-03T01:49:02.099Z,98297.34
2019-04-03T01:50:05.950Z,98299.98
2019-04-03T01:51:08.328Z,98295.53
2019-04-03T01:52:10.424Z,98294.37
2019-04-03T01:53:12.708Z,98296.37
2019-04-03T01:54:14.875Z,98294.37
2019-04-03T01:55:17.334Z,98292.08
2019-04-03T01:56:19.409Z,98288.44
2019-04-03T01:57:21.462Z,98288.13
2019-04-03T01:58:23.561Z,98296.06
2019-04-03T01:59:25.657Z,98292.73
2019-04-03T02:00:30.429Z,98286.48
2019-04-03T02:01:32.828Z,98287.12
2019-04-03T02:02:35.095Z,98285.80
2019-04-03T02:03:36.802Z,98285.16
2019-04-03T02:04:38.551Z,98283.83
2019-04-03T02:05:43.277Z,98283.67
2019-04-03T02:06:44.683Z,98285.79
2019-04-03T02:07:46.886Z,98285.47
2019-04-03T02:08:49.351Z,98283.46
2019-04-03T02:09:51.565Z,98283.14
2019-04-03T02:10:54.041Z,98277.52
2019-04-03T02:11:56.105Z,98279.06
2019-04-03T02:12:57.919Z,98286.64
2019-04-03T02:13:59.952Z,98281.98
2019-04-03T02:15:02.925Z,98279.16
2019-04-03T02:16:06.209Z,98281.33
2019-04-03T02:17:08.172Z,98279.84
2019-04-03T02:18:10.504Z,98279.84
2019-04-03T02:19:12.363Z,98281.66
2019-04-03T02:20:15.455Z,98274.23
2019-04-03T02:21:17.872Z,98277.20
2019-04-03T02:22:20.190Z,98275.35
2019-04-03T02:23:22.214Z,98273.86
2019-04-03T02:24:24.230Z,98270.91
2019-04-03T02:25:26.695Z,98273.88
2019-04-03T02:26:28.783Z,98271.75
2019-04-03T02:27:33.041Z,98271.22
2019-04-03T02:28:35.200Z,98267.94
2019-04-03T02:29:37.963Z,98266.61
2019-04-03T02:30:45.117Z,98268.77
2019-04-03T02:31:46.068Z,98271.75
2019-04-03T02:32:48.496Z,98274.92
2019-04-03T02:33:50.566Z,98268.95
2019-04-03T02:34:53.014Z,98271.10
2019-04-03T02:35:55.501Z,98264.97
2019-04-03T02:36:57.712Z,98266.98
2019-04-03T02:37:59.691Z,98268.30
2019-04-03T02:39:02.721Z,98269.42
2019-04-03T02:40:08.045Z,98268.63
2019-04-03T02:41:10.581Z,98265.30
2019-04-03T02:42:12.608Z,98263.64
2019-04-03T02:43:15.356Z,98264.80
2019-04-03T02:44:19.096Z,98264.13
2019-04-03T02:45:24.192Z,98259.66
2019-04-03T02:46:28.036Z,98256.86
2019-04-03T02:47:32.420Z,98264.98
2019-04-03T02:48:37.363Z,98259.36
2019-04-03T02:49:41.632Z,98258.35
2019-04-03T02:50:44.419Z,98256.08
2019-04-03T02:51:51.879Z,98258.52
2019-04-03T02:52:52.019Z,98257.39
2019-04-03T02:53:54.360Z,98261.37
2019-04-03T02:54:57.100Z,98265.14
2019-04-03T02:55:59.663Z,98264.33
2019-04-03T02:57:02.663Z,98261.00
2019-04-03T02:58:04.676Z,98259.03
2019-04-03T02:59:06.912Z,98257.88
2019-04-03T03:00:09.580Z,98264.50
2019-04-03T03:01:11.788Z,98255.91
2019-04-03T03:02:14.040Z,98260.54
2019-04-03T03:03:17.243Z,98258.91
2019-04-03T03:04:21.546Z,98255.23
2019-04-03T03:05:26.834Z,98260.04
2019-04-03T03:06:31.430Z,98256.41
2019-04-03T03:07:35.651Z,98257.08
2019-04-03T03:08:40.367Z,98255.59
2019-04-03T03:09:40.137Z,98257.55
2019-04-03T03:10:42.305Z,98256.02
2019-04-03T03:11:45.234Z,98258.03
2019-04-03T03:12:47.407Z,98258.52
2019-04-03T03:13:50.508Z,98256.23
2019-04-03T03:14:53.190Z,98255.55
2019-04-03T03:15:55.411Z,98255.23
2019-04-03T03:16:58.280Z,98255.44
2019-04-03T03:18:00.925Z,98253.43
2019-04-03T03:19:03.352Z,98251.47
2019-04-03T03:20:08.053Z,98251.27
2019-04-03T03:21:13.315Z,98253.77
2019-04-03T03:22:18.572Z,98253.28
2019-04-03T03:23:23.366Z,98256.08
2019-04-03T03:24:29.375Z,98252.74
2019-04-03T03:25:33.835Z,98257.09
2019-04-03T03:26:37.829Z,98254.81
2019-04-03T03:27:42.667Z,98256.14
2019-04-03T03:28:48.065Z,98258.80
2019-04-03T03:29:50.307Z,98261.09
2019-04-03T03:31:00.789Z,98254.81
2019-04-03T03:32:08.057Z,98256.14
2019-04-03T03:33:24.608Z,98260.11
2019-04-03T03:34:06.977Z,98257.32
2019-04-03T03:35:15.603Z,98252.33
2019-04-03T03:36:19.567Z,98264.59
2019-04-03T03:37:17.880Z,98252.16
2019-04-03T03:38:20.525Z,98250.84
2019-04-03T03:39:23.129Z,98251.00
2019-04-03T03:40:26.358Z,98253.14
2019-04-03T03:41:29.628Z,98246.55
2019-04-03T03:42:33.005Z,98254.14
2019-04-03T03:43:38.434Z,98249.31
2019-04-03T03:44:43.198Z,98248.19
2019-04-03T03:45:44.758Z,98250.00
2019-04-03T03:46:47.054Z,98244.06
2019-04-03T03:47:51.262Z,98247.50
2019-04-03T03:48:54.003Z,98248.67
2019-04-03T03:49:56.782Z,98248.19
2019-04-03T03:51:03.134Z,98247.83
2019-04-03T03:52:06.365Z,98253.66
2019-04-03T03:53:11.450Z,98247.36
2019-04-03T03:54:16.956Z,98251.17
2019-04-03T03:55:18.409Z,98251.17
2019-04-03T03:56:21.518Z,98250.33
2019-04-03T03:57:24.548Z,98249.01
2019-04-03T03:58:27.955Z,98249.86
2019-04-03T03:59:32.253Z,98251.03
2019-04-03T04:00:34.686Z,98246.03
2019-04-03T04:01:36.730Z,98248.53
2019-04-03T04:02:43.471Z,98245.55
2019-04-03T04:03:43.804Z,98247.87
2019-04-03T04:04:48.767Z,98243.54
2019-04-03T04:05:53.841Z,98244.06
2019-04-03T04:06:55.248Z,98244.71
2019-04-03T04:07:57.978Z,98241.21
2019-04-03T04:09:00.266Z,98237.98
2019-04-03T04:10:05.467Z,98239.40
2019-04-03T04:11:09.913Z,98237.60
2019-04-03T04:12:13.624Z,98236.91
2019-04-03T04:13:16.395Z,98236.27
2019-04-03T04:14:21.818Z,98233.63
2019-04-03T04:15:23.789Z,98232.94
2019-04-03T04:16:26.557Z,98231.08
2019-04-03T04:17:29.170Z,98234.78
2019-04-03T04:18:32.427Z,98234.27
2019-04-03T04:19:35.730Z,98230.66
2019-04-03T04:20:38.913Z,98233.34
2019-04-03T04:21:44.037Z,98231.99
2019-04-03T04:22:50.878Z,98231.35
2019-04-03T04:23:50.999Z,98228.70
2019-04-03T04:24:53.227Z,98230.30
2019-04-03T04:25:56.091Z,98232.95
2019-04-03T04:26:58.461Z,98227.70
2019-04-03T04:28:00.355Z,98231.83
2019-04-03T04:29:03.397Z,98232.63
2019-04-03T04:30:06.323Z,98230.66
2019-04-03T04:31:09.114Z,98228.33
2019-04-03T04:32:11.264Z,98232.61
2019-04-03T04:33:13.306Z,98226.64
2019-04-03T04:34:18.899Z,98227.33
2019-04-03T04:35:22.064Z,98229.34
2019-04-03T04:36:25.602Z,98233.33
2019-04-03T04:37:27.985Z,98230.03
2019-04-03T04:38:30.227Z,98232.00
2019-04-03T04:39:32.563Z,98232.52
2019-04-03T04:40:35.038Z,98231.20
2019-04-03T04:41:37.359Z,98231.53
2019-04-03T04:42:39.571Z,98236.51
2019-04-03T04:43:42.014Z,98237.67
2019-04-03T04:44:44.477Z,98237.05
2019-04-03T04:45:47.086Z,98237.52
2019-04-03T04:46:48.803Z,98239.33
2019-04-03T04:47:51.215Z,98233.06
2019-04-03T04:48:53.612Z,98232.37
2019-04-03T04:49:55.809Z,98233.02
2019-04-03T04:50:58.256Z,98225.07
2019-04-03T04:52:00.706Z,98233.34
2019-04-03T04:53:04.348Z,98231.38
2019-04-03T04:54:06.453Z,98230.05
2019-04-03T04:55:08.323Z,98223.75
2019-04-03T04:56:10.817Z,98228.72
2019-04-03T04:57:13.035Z,98228.41
2019-04-03T04:58:14.974Z,98221.42
2019-04-03T04:59:17.232Z,98226.72
2019-04-03T05:00:19.772Z,98225.90
2019-04-03T05:01:22.105Z,98220.25
2019-04-03T05:02:24.068Z,98229.52
2019-04-03T05:03:27.272Z,98224.05
2019-04-03T05:04:29.587Z,98226.55
2019-04-03T05:05:31.685Z,98223.89
2019-04-03T05:06:35.458Z,98223.89
2019-04-03T05:07:38.628Z,98225.05
2019-04-03T05:08:40.615Z,98224.38
2019-04-03T05:09:44.193Z,98225.52
2019-04-03T05:10:48.730Z,98223.36
2019-04-03T05:11:50.872Z,98228.66
2019-04-03T05:12:52.648Z,98223.41
2019-04-03T05:13:54.805Z,98229.73
2019-04-03T05:14:57.045Z,98232.22
2019-04-03T05:15:59.265Z,98228.73
2019-04-03T05:17:02.047Z,98223.57
2019-04-03T05:18:04.362Z,98220.60
2019-04-03T05:19:10.459Z,98224.52
2019-04-03T05:20:10.718Z,98219.69
2019-04-03T05:21:13.235Z,98220.70
2019-04-03T05:22:15.700Z,98223.64
2019-04-03T05:23:17.697Z,98216.66
2019-04-03T05:24:19.870Z,98217.50
2019-04-03T05:25:22.087Z,98216.73
2019-04-03T05:26:24.137Z,98218.20
2019-04-03T05:27:26.354Z,98220.48
2019-04-03T05:28:28.597Z,98221.14
2019-04-03T05:29:30.776Z,98218.45
2019-04-03T05:30:33.357Z,98221.25
2019-04-03T05:31:36.879Z,98224.59
2019-04-03T05:32:41.179Z,98219.28
2019-04-03T05:33:43.100Z,98218.27
2019-04-03T05:34:45.242Z,98219.22
2019-04-03T05:35:47.730Z,98218.58
2019-04-03T05:36:49.568Z,98219.20
2019-04-03T05:37:51.746Z,98219.91
2019-04-03T05:38:54.106Z,98217.41
2019-04-03T05:39:56.647Z,98222.47
2019-04-03T05:40:59.352Z,98222.60
2019-04-03T05:42:02.088Z,98217.47
2019-04-03T05:43:04.901Z,98216.45
2019-04-03T05:44:07.414Z,98222.90
2019-04-03T05:45:09.776Z,98216.75
2019-04-03T05:46:11.683Z,98213.15
2019-04-03T05:47:13.846Z,98213.80
2019-04-03T05:48:17.669Z,98213.79
2019-04-03T05:49:20.639Z,98212.65
2019-04-03T05:50:24.345Z,98216.44
2019-04-03T05:51:29.162Z,98215.59
2019-04-03T05:52:31.055Z,98214.09
2019-04-03T05:53:35.005Z,98214.09
2019-04-03T05:54:39.350Z,98211.06
2019-04-03T05:55:41.826Z,98207.72
2019-04-03T05:56:44.481Z,98208.09
2019-04-03T05:57:46.693Z,98209.70
2019-04-03T05:58:56.736Z,98211.13
2019-04-03T06:00:00.596Z,98208.95
2019-04-03T06:01:04.489Z,98207.36
2019-04-03T06:02:13.525Z,98208.98
2019-04-03T06:03:07.145Z,98204.30
2019-04-03T06:04:10.277Z,98207.66
2019-04-03T06:05:14.046Z,98207.99
2019-04-03T06:06:16.592Z,98210.33
2019-04-03T06:07:18.958Z,98210.50
2019-04-03T06:08:21.294Z,98211.58
2019-04-03T06:09:24.512Z,98210.54
2019-04-03T06:10:28.177Z,98207.10
2019-04-03T06:11:30.258Z,98204.91
2019-04-03T06:12:32.031Z,98213.62
2019-04-03T06:13:34.564Z,98208.75
2019-04-03T06:14:36.917Z,98207.19
2019-04-03T06:15:39.633Z,98209.03
2019-04-03T06:16:41.842Z,98207.19
2019-04-03T06:17:44.000Z,98207.99
2019-04-03T06:18:47.688Z,98203.78
2019-04-03T06:19:50.631Z,98206.95
2019-04-03T06:20:52.907Z,98203.60
2019-04-03T06:21:55.192Z,98202.84
2019-04-03T06:22:58.624Z,98201.20
2019-04-03T06:24:00.956Z,98198.54
2019-04-03T06:25:05.640Z,98198.86
2019-04-03T06:26:07.943Z,98187.95
2019-04-03T06:27:10.542Z,98195.47
2019-04-03T06:28:13.122Z,98192.12
2019-04-03T06:29:16.912Z,98193.06
2019-04-03T06:30:20.094Z,98194.38
2019-04-03T06:31:22.214Z,98192.39
2019-04-03T06:32:25.050Z,98190.61
2019-04-03T06:33:27.244Z,98187.75
2019-04-03T06:34:29.293Z,98190.09
2019-04-03T06:35:34.610Z,98189.34
2019-04-03T06:36:35.590Z,98185.71
2019-04-03T06:37:37.621Z,98185.51
2019-04-03T06:38:40.424Z,98182.95
2019-04-03T06:39:42.448Z,98181.63
2019-04-03T06:40:45.000Z,98176.62
2019-04-03T06:41:47.261Z,98183.38
2019-04-03T06:42:49.126Z,98190.33
2019-04-03T06:43:54.042Z,98182.11
2019-04-03T06:44:55.806Z,98183.58
2019-04-03T06:45:58.295Z,98185.70
2019-04-03T06:47:01.493Z,98183.78
2019-04-03T06:48:05.098Z,98185.60
2019-04-03T06:49:08.569Z,98186.55
2019-04-03T06:50:12.538Z,98177.13
2019-04-03T06:51:16.477Z,98178.78
2019-04-03T06:52:19.453Z,98178.80
2019-04-03T06:53:27.712Z,98175.25
2019-04-03T06:54:31.034Z,98179.37
2019-04-03T06:55:33.216Z,98177.80
2019-04-03T06:56:38.348Z,98181.42
2019-04-03T06:57:40.924Z,98177.57
2019-04-03T06:58:44.642Z,98174.08
2019-04-03T06:59:48.740Z,98184.55
2019-04-03T07:00:54.180Z,98182.57
2019-04-03T07:01:55.583Z,98180.90
2019-04-03T07:02:57.788Z,98176.91
2019-04-03T07:03:59.905Z,98180.77
2019-04-03T07:05:04.587Z,98178.45
2019-04-03T07:06:06.698Z,98181.88
2019-04-03T07:07:09.190Z,98179.82
2019-04-03T07:08:11.632Z,98183.50
2019-04-03T07:09:23.061Z,98183.98
2019-04-03T07:10:25.410Z,98176.42
2019-04-03T07:11:23.794Z,98179.78
2019-04-03T07:12:26.050Z,98179.17
2019-04-03T07:13:29.719Z,98182.44
2019-04-03T07:14:32.248Z,98180.70
2019-04-03T07:15:34.668Z,98180.54
2019-04-03T07:16:38.584Z,98173.45
2019-04-03T07:17:41.436Z,98174.48
2019-04-03T07:18:43.397Z,98184.17
2019-04-03T07:19:45.950Z,98174.22
2019-04-03T07:20:51.268Z,98182.75
2019-04-03T07:21:52.991Z,98183.84
2019-04-03T07:22:58.071Z,98183.69
2019-04-03T07:24:00.934Z,98178.38
2019-04-03T07:25:05.981Z,98174.03
2019-04-03T07:26:08.140Z,98180.77
2019-04-03T07:27:10.393Z,98176.15
2019-04-03T07:28:12.476Z,98177.44
2019-04-03T07:29:16.956Z,98174.73
2019-04-03T07:30:19.980Z,98178.90
2019-04-03T07:31:24.351Z,98169.89
2019-04-03T07:32:26.804Z,98164.59
2019-04-03T07:33:29.438Z,98167.96
2019-04-03T07:34:34.490Z,98169.73
2019-04-03T07:35:39.215Z,98160.21
2019-04-03T07:36:43.011Z,98164.78
2019-04-03T07:37:45.263Z,98166.91
2019-04-03T07:38:47.807Z,98167.00
2019-04-03T07:39:50.538Z,98172.31
2019-04-03T07:40:52.891Z,98172.59
2019-04-03T07:41:55.165Z,98171.91
2019-04-03T07:42:57.042Z,98162.92
2019-04-03T07:43:59.431Z,98163.10
2019-04-03T07:45:03.030Z,98167.84
2019-04-03T07:46:05.423Z,98171.83
2019-04-03T07:47:07.771Z,98171.81
2019-04-03T07:48:09.613Z,98170.81
2019-04-03T07:49:13.803Z,98166.95
2019-04-03T07:50:16.161Z,98174.13
2019-04-03T07:51:19.540Z,98161.95
2019-04-03T07:52:21.526Z,98165.36
2019-04-03T07:53:23.583Z,98168.09
2019-04-03T07:54:27.345Z,98167.13
2019-04-03T07:55:29.636Z,98174.75
2019-04-03T07:56:31.781Z,98164.78
2019-04-03T07:57:33.926Z,98168.55
2019-04-03T07:58:36.341Z,98169.48
2019-04-03T07:59:38.508Z,98172.59
2019-04-03T08:00:40.910Z,98173.03
2019-04-03T08:01:42.981Z,98166.73
2019-04-03T08:02:48.536Z,98169.92
2019-04-03T08:03:51.640Z,98168.11
2019-04-03T08:04:54.224Z,98166.92
2019-04-03T08:05:57.286Z,98170.72
2019-04-03T08:06:59.126Z,98168.02
2019-04-03T08:08:02.235Z,98168.90
2019-04-03T08:09:09.742Z,98171.25
2019-04-03T08:10:11.555Z,98168.33
2019-04-03T08:11:15.315Z,98167.58
2019-04-03T08:12:18.491Z,98166.82
2019-04-03T08:13:21.083Z,98167.58
2019-04-03T08:14:23.459Z,98172.50
2019-04-03T08:15:26.168Z,98167.39
2019-04-03T08:16:28.044Z,98168.02
2019-04-03T08:17:30.469Z,98168.14
2019-04-03T08:18:32.302Z,98172.89
2019-04-03T08:19:35.061Z,98168.33
2019-04-03T08:20:38.192Z,98170.98
2019-04-03T08:21:40.999Z,98175.50
2019-04-03T08:22:43.627Z,98171.72
2019-04-03T08:23:46.078Z,98170.00
2019-04-03T08:24:48.004Z,98172.69
2019-04-03T08:25:53.237Z,98178.00
2019-04-03T08:26:54.070Z,98172.29
2019-04-03T08:27:56.380Z,98173.75
2019-04-03T08:29:01.002Z,98170.78
2019-04-03T08:30:07.564Z,98173.52
2019-04-03T08:31:11.502Z,98177.03
2019-04-03T08:32:15.370Z,98171.66
2019-04-03T08:33:19.141Z,98171.85
2019-04-03T08:34:21.100Z,98175.20
2019-04-03T08:35:24.372Z,98175.16
2019-04-03T08:36:27.115Z,98178.70
2019-04-03T08:37:31.649Z,98177.48
2019-04-03T08:38:33.090Z,98173.70
2019-04-03T08:39:36.699Z,98166.67
2019-04-03T08:40:38.658Z,98176.49
2019-04-03T08:41:40.967Z,98167.95
2019-04-03T08:42:43.126Z,98173.70
2019-04-03T08:43:45.342Z,98164.81
2019-04-03T08:44:47.449Z,98176.36
2019-04-03T08:45:49.927Z,98171.09
2019-04-03T08:46:51.997Z,98167.13
2019-04-03T08:47:54.102Z,98171.36
2019-04-03T08:48:56.021Z,98163.38
2019-04-03T08:50:01.218Z,98166.04
2019-04-03T08:51:03.787Z,98165.98
2019-04-03T08:52:06.174Z,98164.78
2019-04-03T08:53:08.916Z,98161.02
2019-04-03T08:54:12.086Z,98162.69
2019-04-03T08:55:14.712Z,98161.15
2019-04-03T08:56:17.573Z,98158.62
2019-04-03T08:57:20.569Z,98163.26
2019-04-03T08:58:25.405Z,98160.85
2019-04-03T08:59:29.229Z,98154.80
2019-04-03T09:00:32.688Z,98155.94
2019-04-03T09:01:37.047Z,98155.14
2019-04-03T09:02:38.940Z,98165.78
2019-04-03T09:03:41.194Z,98161.80
2019-04-03T09:04:43.350Z,98171.47
2019-04-03T09:05:45.556Z,98165.88
2019-04-03T09:06:47.825Z,98161.45
2019-04-03T09:07:50.015Z,98166.13
2019-04-03T09:08:52.546Z,98157.37
2019-04-03T09:09:54.378Z,98151.89
2019-04-03T09:10:56.719Z,98155.47
2019-04-03T09:11:59.029Z,98164.94
2019-04-03T09:13:15.361Z,98149.32
2019-04-03T09:14:06.468Z,98151.00
2019-04-03T09:15:09.174Z,98150.83
2019-04-03T09:16:11.366Z,98156.39
2019-04-03T09:17:14.469Z,98153.25
2019-04-03T09:18:16.308Z,98153.17
2019-04-03T09:19:18.390Z,98166.54
2019-04-03T09:20:22.398Z,98155.28
2019-04-03T09:21:24.593Z,98161.67
2019-04-03T09:22:26.294Z,98150.02
2019-04-03T09:23:28.382Z,98145.95
2019-04-03T09:24:30.660Z,98154.59
2019-04-03T09:25:33.035Z,98143.92
2019-04-03T09:26:37.968Z,98136.88
2019-04-03T09:27:40.716Z,98156.76
2019-04-03T09:28:43.411Z,98145.20
2019-04-03T09:29:45.909Z,98135.98
2019-04-03T09:30:48.564Z,98139.27
2019-04-03T09:31:55.518Z,98151.98
2019-04-03T09:32:59.084Z,98128.73
2019-04-03T09:34:00.307Z,98147.48
2019-04-03T09:35:06.149Z,98138.06
2019-04-03T09:36:08.201Z,98125.47
2019-04-03T09:37:09.930Z,98127.91
2019-04-03T09:38:12.285Z,98130.47
2019-04-03T09:39:15.100Z,98126.30
2019-04-03T09:40:18.032Z,98124.77
2019-04-03T09:41:21.633Z,98120.45
2019-04-03T09:42:23.811Z,98124.16
2019-04-03T09:43:25.959Z,98127.83
2019-04-03T09:44:28.461Z,98133.80
2019-04-03T09:45:30.783Z,98121.56
2019-04-03T09:46:33.053Z,98121.01
2019-04-03T09:47:36.342Z,98117.70
2019-04-03T09:48:38.179Z,98113.52
2019-04-03T09:49:43.808Z,98120.58
2019-04-03T09:50:46.325Z,98122.55
2019-04-03T09:51:52.177Z,98118.13
2019-04-03T09:52:55.296Z,98135.66
2019-04-03T09:53:58.450Z,98115.66
2019-04-03T09:55:01.080Z,98132.30
2019-04-03T09:56:07.330Z,98115.86
2019-04-03T09:57:08.633Z,98114.93
2019-04-03T09:58:10.720Z,98111.77
2019-04-03T09:59:15.447Z,98117.94
2019-04-03T10:00:18.273Z,98106.83
2019-04-03T10:01:20.582Z,98109.70
2019-04-03T10:02:22.818Z,98110.94
2019-04-03T10:03:24.866Z,98120.81
2019-04-03T10:04:26.970Z,98121.41
2019-04-03T10:05:30.565Z,98130.25
2019-04-03T10:06:32.772Z,98116.48
2019-04-03T10:07:36.651Z,98113.61
2019-04-03T10:08:40.677Z,98120.39
2019-04-03T10:09:43.825Z,98113.91
2019-04-03T10:10:50.093Z,98101.07
2019-04-03T10:11:52.639Z,98097.17
2019-04-03T10:12:55.350Z,98097.17
2019-04-03T10:13:57.963Z,98104.05
2019-04-03T10:15:00.828Z,98107.64
2019-04-03T10:16:04.297Z,98103.74
2019-04-03T10:17:07.333Z,98106.91
2019-04-03T10:18:10.195Z,98109.88
2019-04-03T10:19:14.190Z,98106.81
2019-04-03T10:20:18.362Z,98103.41
2019-04-03T10:21:20.939Z,98098.91
2019-04-03T10:22:24.204Z,98099.10
2019-04-03T10:23:29.076Z,98099.30
2019-04-03T10:24:31.769Z,98126.00
2019-04-03T10:25:36.528Z,98092.33
2019-04-03T10:26:40.590Z,98102.38
2019-04-03T10:27:43.626Z,98108.55
2019-04-03T10:28:47.790Z,98099.80
2019-04-03T10:29:50.722Z,98096.63
2019-04-03T10:30:54.104Z,98095.59
2019-04-03T10:31:56.920Z,98089.42
2019-04-03T10:33:00.172Z,98084.38
2019-04-03T10:34:04.211Z,98084.48
2019-04-03T10:35:09.146Z,98078.63
2019-04-03T10:36:12.290Z,98079.53
2019-04-03T10:37:16.034Z,98083.23
2019-04-03T10:38:19.029Z,98068.44
2019-04-03T10:39:21.391Z,98076.45
2019-04-03T10:40:24.900Z,98073.98
2019-04-03T10:41:29.116Z,98077.80
2019-04-03T10:42:31.862Z,98072.08
2019-04-03T10:43:37.545Z,98063.73
2019-04-03T10:44:39.447Z,98082.63
2019-04-03T10:45:41.671Z,98067.44
2019-04-03T10:46:43.923Z,98066.61
2019-04-03T10:47:47.251Z,98061.89
2019-04-03T10:48:49.514Z,98066.40
2019-04-03T10:49:53.842Z,98065.06
2019-04-03T10:50:56.217Z,98063.23
2019-04-03T10:51:58.746Z,98060.35
2019-04-03T10:53:00.729Z,98060.86
2019-04-03T10:54:04.434Z,98064.96
2019-04-03T10:55:07.057Z,98076.15
2019-04-03T10:56:10.458Z,98070.80
2019-04-03T10:57:13.263Z,98072.23
2019-04-03T10:58:15.140Z,98059.51
2019-04-03T10:59:18.494Z,98065.89
2019-04-03T11:00:22.056Z,98078.71
2019-04-03T11:01:25.712Z,98079.01
2019-04-03T11:02:28.138Z,98059.40
2019-04-03T11:03:30.010Z,98057.64
2019-04-03T11:04:32.924Z,98057.73
2019-04-03T11:05:36.120Z,98055.69
2019-04-03T11:06:38.619Z,98046.94
2019-04-03T11:07:40.310Z,98053.11
2019-04-03T11:08:42.472Z,98054.35
2019-04-03T11:09:45.909Z,98042.08
2019-04-03T11:10:48.596Z,98050.44
2019-04-03T11:11:50.914Z,98056.08
2019-04-03T11:12:52.929Z,98044.95
2019-04-03T11:13:55.544Z,98047.13
2019-04-03T11:14:57.777Z,98052.17
2019-04-03T11:15:59.710Z,98043.12
2019-04-03T11:17:02.164Z,98042.61
2019-04-03T11:18:04.885Z,98032.93
2019-04-03T11:19:07.530Z,98035.39
2019-04-03T11:20:11.096Z,98034.66
2019-04-03T11:21:13.496Z,98035.88
2019-04-03T11:22:16.366Z,98039.70
2019-04-03T11:23:21.623Z,98025.01
2019-04-03T11:24:22.906Z,98027.68
2019-04-03T11:25:25.027Z,98026.05
2019-04-03T11:26:27.332Z,98061.71
2019-04-03T11:27:41.927Z,98032.31
2019-04-03T11:28:36.967Z,98017.47
2019-04-03T11:29:40.996Z,98020.38
2019-04-03T11:30:42.962Z,98022.42
2019-04-03T11:31:45.477Z,98014.70
2019-04-03T11:32:48.232Z,98012.45
2019-04-03T11:33:51.419Z,98025.49
2019-04-03T11:34:54.339Z,98017.56
2019-04-03T11:35:58.424Z,98031.16
2019-04-03T11:37:01.509Z,98018.31
2019-04-03T11:38:12.682Z,98031.16
2019-04-03T11:39:15.091Z,98016.77
2019-04-03T11:40:17.394Z,98024.48
2019-04-03T11:41:19.977Z,98013.88
2019-04-03T11:42:26.200Z,98007.69
2019-04-03T11:43:27.167Z,98009.64
2019-04-03T11:44:29.609Z,98013.64
2019-04-03T11:45:31.980Z,98005.87
2019-04-03T11:46:34.418Z,98039.98
2019-04-03T11:47:37.073Z,98002.36
2019-04-03T11:48:42.836Z,98003.49
2019-04-03T11:49:44.509Z,97992.89
2019-04-03T11:50:47.157Z,97995.56
2019-04-03T11:51:49.810Z,97995.33
2019-04-03T11:52:52.303Z,97998.14
2019-04-03T11:53:55.956Z,97990.93
2019-04-03T11:54:58.152Z,97998.65
2019-04-03T11:56:00.646Z,97986.33
2019-04-03T11:57:04.339Z,97978.91
2019-04-03T11:58:06.214Z,97988.64
2019-04-03T11:59:08.577Z,97991.02
2019-04-03T12:00:16.936Z,97985.67
2019-04-03T12:01:19.228Z,97999.25
2019-04-03T12:02:21.873Z,97997.79
2019-04-03T12:03:24.186Z,97986.30
2019-04-03T12:04:26.192Z,97987.10
2019-04-03T12:05:28.313Z,97986.06
2019-04-03T12:06:30.520Z,97972.78
2019-04-03T12:07:32.631Z,97974.75
2019-04-03T12:08:35.070Z,97983.56
2019-04-03T12:09:37.344Z,97987.07
2019-04-03T12:10:39.740Z,97983.86
2019-04-03T12:11:42.258Z,97987.07
2019-04-03T12:12:44.386Z,97994.05
2019-04-03T12:13:46.732Z,97989.20
2019-04-03T12:14:50.042Z,97991.67
2019-04-03T12:15:53.658Z,97979.64
2019-04-03T12:16:58.595Z,97983.16
2019-04-03T12:18:02.110Z,97971.21
2019-04-03T12:19:05.903Z,97978.39